createdAt,value
2019-03-13T00:01:52.447Z,7.77
2019-03-13T00:04:21.376Z,8.20
2019-03-13T00:06:50.710Z,9.50
2019-03-13T00:09:20.040Z,8.67
2019-03-13T00:11:49.387Z,7.67
2019-03-13T00:14:18.723Z,6.97
2019-03-13T00:16:48.046Z,7.23
2019-03-13T00:19:17.350Z,9.23
2019-03-13T00:21:46.680Z,7.60
2019-03-13T00:24:16.008Z,7.40
2019-03-13T00:26:45.333Z,5.63
2019-03-13T00:29:14.648Z,7.53
2019-03-13T00:31:43.973Z,7.13
2019-03-13T00:34:13.308Z,5.83
2019-03-13T00:36:42.660Z,6.37
2019-03-13T00:39:11.977Z,6.00
2019-03-13T00:44:44.226Z,6.43
2019-03-13T00:47:13.556Z,6.00
2019-03-13T00:49:42.863Z,5.73
2019-03-13T00:52:12.202Z,6.77
2019-03-13T00:54:41.543Z,8.17
2019-03-13T00:57:10.871Z,6.40
2019-03-13T00:59:40.194Z,7.73
2019-03-13T01:05:04.314Z,5.37
2019-03-13T01:07:33.633Z,6.80
2019-03-13T01:13:04.758Z,6.17
2019-03-13T01:15:33.281Z,6.17
2019-03-13T01:21:04.857Z,6.40
2019-03-13T01:23:34.165Z,8.03
2019-03-13T01:26:03.606Z,7.17
2019-03-13T01:28:32.920Z,7.37
2019-03-13T01:34:26.882Z,6.07
2019-03-13T01:36:56.213Z,6.27
2019-03-13T01:39:25.526Z,6.83
2019-03-13T01:41:54.855Z,8.20
2019-03-13T01:44:24.175Z,7.43
2019-03-13T01:46:53.495Z,6.50
2019-03-13T01:49:22.822Z,6.97
2019-03-13T01:54:34.939Z,5.93
2019-03-13T01:57:04.269Z,7.23
2019-03-13T01:59:33.612Z,7.33
2019-03-13T02:02:02.946Z,6.83
2019-03-13T02:04:32.373Z,6.70
2019-03-13T02:07:01.714Z,7.73
2019-03-13T02:12:33.468Z,8.20
2019-03-13T02:15:15.428Z,6.70
2019-03-13T02:20:46.853Z,6.03
2019-03-13T02:23:16.203Z,7.10
2019-03-13T02:25:45.517Z,6.33
2019-03-13T02:28:14.843Z,7.40
2019-03-13T02:30:44.175Z,7.47
2019-03-13T02:33:13.522Z,6.20
2019-03-13T02:35:42.845Z,7.50
2019-03-13T02:38:12.178Z,7.93
2019-03-13T02:40:41.523Z,7.33
2019-03-13T02:43:10.821Z,5.53
2019-03-13T02:45:40.157Z,6.87
2019-03-13T02:48:09.494Z,7.27
2019-03-13T02:50:38.814Z,6.47
2019-03-13T02:53:08.152Z,6.97
2019-03-13T02:55:37.460Z,7.07
2019-03-13T02:58:06.781Z,6.30
2019-03-13T03:00:55.563Z,9.30
2019-03-13T03:03:43.557Z,7.93
2019-03-13T03:09:14.934Z,9.57
2019-03-13T03:11:44.252Z,7.07
2019-03-13T03:14:13.584Z,9.10
2019-03-13T03:16:42.920Z,6.83
2019-03-13T03:19:12.251Z,7.07
2019-03-13T03:21:41.575Z,9.07
2019-03-13T03:24:11.091Z,7.33
2019-03-13T03:26:40.503Z,9.23
2019-03-13T03:32:11.799Z,8.20
2019-03-13T03:34:40.342Z,9.50
2019-03-13T03:37:08.859Z,10.17
2019-03-13T03:42:39.880Z,10.53
2019-03-13T03:50:54.333Z,9.00
2019-03-13T03:53:23.665Z,8.80
2019-03-13T03:55:53.075Z,8.57
2019-03-13T03:58:22.424Z,8.63
2019-03-13T04:03:35.373Z,8.10
2019-03-13T04:06:04.890Z,9.00
2019-03-13T04:11:35.429Z,8.07
2019-03-13T04:17:06.505Z,9.80
2019-03-13T04:19:35.829Z,8.13
2019-03-13T04:22:05.173Z,10.17
2019-03-13T04:24:34.498Z,8.00
2019-03-13T04:27:03.942Z,8.33
2019-03-13T04:29:33.271Z,6.30
2019-03-13T04:32:02.622Z,8.70
2019-03-13T04:34:31.946Z,8.70
2019-03-13T04:37:01.284Z,9.17
2019-03-13T04:39:30.600Z,8.80
2019-03-13T04:41:59.958Z,7.43
2019-03-13T04:44:29.280Z,9.90
2019-03-13T04:50:00.687Z,9.47
2019-03-13T04:52:30.014Z,8.53
2019-03-13T04:54:59.347Z,9.13
2019-03-13T04:57:28.689Z,8.03
2019-03-13T04:59:58.019Z,9.20
2019-03-13T05:02:27.360Z,7.73
2019-03-13T05:04:56.668Z,6.57
2019-03-13T05:07:25.976Z,8.53
2019-03-13T05:09:55.296Z,9.33
2019-03-13T05:12:24.709Z,8.43
2019-03-13T05:14:54.032Z,7.80
2019-03-13T05:17:23.365Z,9.10
2019-03-13T05:19:52.697Z,8.67
2019-03-13T05:22:22.031Z,10.33
2019-03-13T05:24:51.365Z,11.50
2019-03-13T05:30:22.628Z,8.63
2019-03-13T05:32:51.965Z,7.50
2019-03-13T05:35:21.287Z,10.30
2019-03-13T05:37:50.659Z,12.83
2019-03-13T05:40:20.012Z,7.13
2019-03-13T05:42:48.628Z,8.20
2019-03-13T05:48:19.868Z,12.93
2019-03-13T05:50:49.194Z,12.47
2019-03-13T05:53:18.532Z,9.47
2019-03-13T05:55:47.856Z,18.00
2019-03-13T05:58:17.189Z,10.27
2019-03-13T06:00:46.541Z,10.27
2019-03-13T06:03:15.884Z,13.23
2019-03-13T06:05:45.424Z,9.23
2019-03-13T06:08:14.797Z,15.90
2019-03-13T06:10:44.111Z,13.37
2019-03-13T06:19:17.102Z,17.13
2019-03-13T06:24:30.103Z,13.47
2019-03-13T06:26:59.457Z,11.60
2019-03-13T06:32:17.104Z,12.87
2019-03-13T06:34:46.486Z,12.33
2019-03-13T06:37:15.886Z,10.90
2019-03-13T06:39:45.301Z,76.50
2019-03-13T06:42:14.744Z,13.87
2019-03-13T06:44:44.588Z,13.07
2019-03-13T06:47:14.383Z,9.93
2019-03-13T06:50:03.472Z,9.40
2019-03-13T06:52:33.044Z,10.30
2019-03-13T06:55:02.528Z,10.23
2019-03-13T06:57:31.998Z,11.83
2019-03-13T07:00:20.820Z,10.27
2019-03-13T07:03:08.920Z,11.70
2019-03-13T07:05:57.803Z,10.97
2019-03-13T07:08:46.645Z,18.67
2019-03-13T07:11:35.456Z,12.90
2019-03-13T07:14:23.508Z,26.93
2019-03-13T07:20:14.807Z,11.03
2019-03-13T07:23:03.601Z,9.83
2019-03-13T07:25:52.441Z,12.20
2019-03-13T07:28:36.783Z,9.50
2019-03-13T07:31:14.273Z,9.23
2019-03-13T07:37:05.118Z,12.93
2019-03-13T07:39:53.138Z,10.43
2019-03-13T07:42:41.227Z,8.03
2019-03-13T07:45:22.223Z,11.50
2019-03-13T07:48:11.026Z,10.77
2019-03-13T07:50:52.211Z,10.73
2019-03-13T07:53:40.236Z,11.33
2019-03-13T07:56:28.257Z,14.47
2019-03-13T07:59:16.314Z,15.93
2019-03-13T08:01:54.707Z,12.83
2019-03-13T08:07:45.661Z,14.33
2019-03-13T08:10:34.618Z,10.27
2019-03-13T08:18:41.421Z,9.90
2019-03-13T08:21:29.483Z,10.40
2019-03-13T08:24:17.515Z,11.83
2019-03-13T08:26:52.185Z,10.70
2019-03-13T08:32:42.416Z,9.40
2019-03-13T08:35:37.127Z,11.03
2019-03-13T08:38:25.333Z,10.07
2019-03-13T08:41:14.412Z,10.73
2019-03-13T08:46:52.820Z,12.43
2019-03-13T08:52:35.905Z,14.27
2019-03-13T08:55:24.361Z,12.87
2019-03-13T08:58:13.196Z,11.50
2019-03-13T09:04:04.154Z,10.57
2019-03-13T09:06:53.069Z,12.23
2019-03-13T09:09:41.395Z,14.00
2019-03-13T09:15:31.777Z,10.70
2019-03-13T09:21:22.000Z,9.10
2019-03-13T09:23:57.760Z,11.77
2019-03-13T09:29:40.421Z,9.60
2019-03-13T09:32:28.625Z,11.53
2019-03-13T09:38:19.462Z,9.37
2019-03-13T09:41:07.569Z,11.87
2019-03-13T09:43:55.610Z,11.73
2019-03-13T09:46:43.601Z,9.10
2019-03-13T09:49:31.678Z,9.00
2019-03-13T09:52:20.485Z,8.00
2019-03-13T09:55:08.538Z,9.50
2019-03-13T09:57:57.370Z,13.13
2019-03-13T10:00:45.557Z,9.93
2019-03-13T10:03:34.372Z,9.77
2019-03-13T10:06:22.643Z,10.53
2019-03-13T10:09:11.504Z,8.47
2019-03-13T10:11:59.608Z,12.13
2019-03-13T10:14:47.737Z,9.30
2019-03-13T10:17:35.725Z,9.90
2019-03-13T10:20:22.613Z,10.77
2019-03-13T10:23:11.409Z,10.90
2019-03-13T10:26:00.284Z,12.80
2019-03-13T10:28:49.136Z,10.70
2019-03-13T10:34:43.321Z,12.03
2019-03-13T10:40:34.445Z,11.73
2019-03-13T10:46:13.263Z,8.27
2019-03-13T10:52:03.783Z,10.33
2019-03-13T10:54:43.093Z,8.93
2019-03-13T10:57:31.978Z,15.37
2019-03-13T11:00:11.933Z,12.07
2019-03-13T11:06:02.748Z,9.97
2019-03-13T11:08:51.102Z,11.90
2019-03-13T11:11:39.900Z,11.90
2019-03-13T11:14:28.769Z,9.20
2019-03-13T11:17:16.766Z,9.03
2019-03-13T11:20:08.084Z,7.07
2019-03-13T11:22:56.949Z,9.13
2019-03-13T11:25:45.077Z,14.20
2019-03-13T11:28:33.531Z,10.60
2019-03-13T11:31:22.313Z,11.12
2019-03-13T11:34:11.125Z,10.23
2019-03-13T11:36:59.935Z,9.30
2019-03-13T11:39:48.216Z,16.50
2019-03-13T11:42:55.876Z,14.87
2019-03-13T11:45:44.935Z,10.90
2019-03-13T11:48:23.248Z,14.53
2019-03-13T11:51:12.338Z,11.10
2019-03-13T11:57:03.908Z,10.47
2019-03-13T11:59:47.709Z,8.30
2019-03-13T12:02:36.240Z,43.77
2019-03-13T12:05:23.885Z,21.83
2019-03-13T12:08:12.684Z,12.13
2019-03-13T12:10:48.299Z,8.37
2019-03-13T12:16:38.791Z,12.13
2019-03-13T12:19:27.600Z,9.50
2019-03-13T12:22:08.004Z,8.97
2019-03-13T12:27:59.069Z,11.20
2019-03-13T12:33:50.437Z,11.67
2019-03-13T12:39:45.469Z,9.77
2019-03-13T12:42:34.271Z,10.20
2019-03-13T12:48:17.001Z,8.40
2019-03-13T12:51:24.134Z,9.67
2019-03-13T12:54:00.136Z,11.57
2019-03-13T12:56:38.965Z,11.40
2019-03-13T12:59:27.765Z,10.30
2019-03-13T13:02:16.567Z,13.50
2019-03-13T13:05:05.376Z,10.40
2019-03-13T13:07:54.168Z,9.23
2019-03-13T13:10:43.014Z,11.53
2019-03-13T13:18:58.842Z,9.47
2019-03-13T13:21:28.182Z,10.30
2019-03-13T13:23:57.508Z,10.13
2019-03-13T13:26:26.832Z,9.43
2019-03-13T13:34:41.289Z,9.63
2019-03-13T13:37:10.762Z,10.13
2019-03-13T13:39:40.098Z,11.47
2019-03-13T13:42:09.445Z,9.53
2019-03-13T13:44:38.796Z,12.20
2019-03-13T13:47:08.128Z,10.77
2019-03-13T13:52:40.672Z,10.20
2019-03-13T13:58:04.549Z,13.27
2019-03-13T14:00:33.299Z,8.57
2019-03-13T14:03:02.745Z,10.97
2019-03-13T14:05:32.069Z,10.53
2019-03-13T14:08:01.454Z,17.30
2019-03-13T14:10:30.794Z,16.83
2019-03-13T14:13:00.151Z,12.70
2019-03-13T14:15:29.488Z,10.70
2019-03-13T14:18:00.156Z,14.60
2019-03-13T14:20:48.142Z,10.27
2019-03-13T14:23:17.531Z,11.50
2019-03-13T14:25:46.893Z,10.93
2019-03-13T14:28:16.299Z,11.67
2019-03-13T14:30:45.639Z,10.73
2019-03-13T14:33:14.985Z,12.90
2019-03-13T14:35:46.363Z,11.50
2019-03-13T14:38:33.744Z,11.07
2019-03-13T14:41:03.222Z,11.53
2019-03-13T14:46:35.373Z,11.20
2019-03-13T14:49:04.721Z,10.60
2019-03-13T14:51:34.059Z,10.27
2019-03-13T14:54:03.555Z,8.23
2019-03-13T14:56:32.878Z,11.57
2019-03-13T14:59:02.219Z,10.37
2019-03-13T15:01:31.641Z,12.00
2019-03-13T15:07:03.251Z,12.73
2019-03-13T15:09:32.598Z,12.43
2019-03-13T15:12:01.957Z,13.17
2019-03-13T15:14:31.322Z,10.97
2019-03-13T15:17:00.668Z,15.17
2019-03-13T15:19:30.032Z,12.47
2019-03-13T15:21:59.364Z,12.40
2019-03-13T15:27:31.879Z,12.50
2019-03-13T15:30:01.226Z,12.33
2019-03-13T15:32:49.931Z,10.90
2019-03-13T15:35:19.289Z,12.97
2019-03-13T15:40:51.058Z,10.93
2019-03-13T15:43:33.154Z,12.10
2019-03-13T15:49:04.214Z,11.77
2019-03-13T15:51:33.575Z,13.57
2019-03-13T15:54:02.939Z,11.30
2019-03-13T15:56:32.283Z,13.73
2019-03-13T15:59:01.024Z,14.93
2019-03-13T16:04:33.667Z,20.43
2019-03-13T16:07:03.520Z,12.90
2019-03-13T16:12:16.526Z,10.67
2019-03-13T16:14:45.961Z,18.37
2019-03-13T16:17:15.420Z,13.03
2019-03-13T16:19:44.791Z,10.23
2019-03-13T16:22:26.062Z,14.30
2019-03-13T16:24:54.947Z,16.50
2019-03-13T16:33:29.069Z,11.03
2019-03-13T16:35:58.448Z,11.03
2019-03-13T16:38:27.828Z,16.70
2019-03-13T16:40:57.208Z,11.93
2019-03-13T16:43:26.547Z,17.60
2019-03-13T16:45:55.924Z,14.23
2019-03-13T16:51:28.091Z,14.80
2019-03-13T16:53:57.526Z,19.57
2019-03-13T16:56:26.864Z,17.17
2019-03-13T16:58:56.206Z,14.57
2019-03-13T17:01:25.557Z,13.40
2019-03-13T17:03:54.890Z,13.37
2019-03-13T17:06:24.240Z,13.90
2019-03-13T17:08:53.585Z,10.90
2019-03-13T17:11:23.029Z,17.23
2019-03-13T17:13:52.380Z,20.77
2019-03-13T17:16:21.719Z,18.77
2019-03-13T17:18:51.057Z,17.50
2019-03-13T17:21:20.386Z,16.90
2019-03-13T17:23:49.852Z,15.67
2019-03-13T17:26:19.199Z,18.93
2019-03-13T17:28:50.297Z,24.17
2019-03-13T17:31:37.911Z,17.83
2019-03-13T17:34:07.318Z,19.43
2019-03-13T17:36:36.725Z,16.27
2019-03-13T17:39:06.890Z,19.17
2019-03-13T17:41:36.328Z,20.53
2019-03-13T17:44:05.703Z,17.43
2019-03-13T17:46:35.053Z,19.00
2019-03-13T17:49:04.419Z,25.30
2019-03-13T18:00:02.472Z,21.00
2019-03-13T18:02:31.818Z,20.40
2019-03-13T18:05:01.176Z,18.50
2019-03-13T18:10:33.192Z,15.80
2019-03-13T18:16:04.231Z,21.20
2019-03-13T18:21:36.070Z,15.90
2019-03-13T18:24:05.484Z,19.23
2019-03-13T18:29:38.363Z,21.47
2019-03-13T18:32:07.953Z,19.03
2019-03-13T18:34:37.289Z,21.27
2019-03-13T18:37:06.993Z,24.70
2019-03-13T18:42:39.177Z,18.93
2019-03-13T18:51:14.669Z,20.50
2019-03-13T18:53:44.481Z,19.27
2019-03-13T18:56:13.816Z,18.77
2019-03-13T18:58:43.155Z,18.53
2019-03-13T19:01:25.005Z,21.03
2019-03-13T19:03:53.779Z,18.27
2019-03-13T19:06:23.113Z,25.40
2019-03-13T19:08:52.517Z,25.60
2019-03-13T19:11:21.923Z,17.47
2019-03-13T19:13:51.264Z,16.30
2019-03-13T19:16:20.608Z,23.87
2019-03-13T19:18:49.936Z,25.80
2019-03-13T19:21:19.277Z,24.57
2019-03-13T19:23:48.645Z,39.70
2019-03-13T19:26:18.147Z,41.50
2019-03-13T19:28:47.481Z,33.93
2019-03-13T19:31:16.812Z,28.57
2019-03-13T19:33:46.138Z,23.40
2019-03-13T19:36:15.708Z,20.73
2019-03-13T19:38:45.051Z,22.47
2019-03-13T19:41:14.494Z,19.43
2019-03-13T19:43:43.850Z,23.03
2019-03-13T19:46:13.174Z,21.23
2019-03-13T19:48:42.515Z,20.60
2019-03-13T19:51:11.858Z,20.83
2019-03-13T19:53:41.986Z,21.30
2019-03-13T19:56:30.580Z,23.67
2019-03-13T19:59:00.143Z,24.03
2019-03-13T20:04:12.732Z,16.03
2019-03-13T20:06:42.672Z,16.20
2019-03-13T20:09:31.321Z,19.57
2019-03-13T20:12:01.015Z,18.67
2019-03-13T20:14:30.341Z,19.90
2019-03-13T20:16:59.668Z,17.97
2019-03-13T20:19:29.209Z,18.03
2019-03-13T20:25:00.401Z,18.23
2019-03-13T20:30:31.549Z,14.83
2019-03-13T20:33:00.872Z,14.47
2019-03-13T20:35:30.205Z,12.40
2019-03-13T20:37:59.551Z,18.23
2019-03-13T20:40:28.958Z,16.90
2019-03-13T20:42:58.416Z,17.20
2019-03-13T20:45:27.968Z,13.47
2019-03-13T20:47:57.320Z,12.57
2019-03-13T20:50:36.665Z,11.97
2019-03-13T20:53:15.870Z,16.37
2019-03-13T20:55:45.208Z,12.63
2019-03-13T20:58:14.624Z,13.67
2019-03-13T21:03:39.599Z,12.33
2019-03-13T21:06:08.920Z,15.00
2019-03-13T21:08:38.261Z,13.60
2019-03-13T21:11:07.707Z,15.67
2019-03-13T21:13:58.288Z,13.80
2019-03-13T21:16:27.604Z,13.67
2019-03-13T21:18:56.958Z,11.97
2019-03-13T21:21:26.269Z,13.40
2019-03-13T21:23:55.613Z,17.83
2019-03-13T21:26:24.989Z,14.43
2019-03-13T21:28:54.331Z,12.10
2019-03-13T21:34:28.351Z,12.73
2019-03-13T21:37:14.962Z,12.30
2019-03-13T21:42:46.456Z,12.87
2019-03-13T21:45:39.944Z,15.70
2019-03-13T21:51:11.645Z,11.13
2019-03-13T21:53:40.189Z,12.47
2019-03-13T21:56:09.624Z,11.27
2019-03-13T22:04:24.740Z,18.47
2019-03-13T22:07:13.335Z,16.73
2019-03-13T22:09:42.683Z,17.50
2019-03-13T22:12:12.016Z,19.57
2019-03-13T22:14:41.337Z,21.37
2019-03-13T22:17:10.670Z,22.40
2019-03-13T22:19:40.034Z,21.80
2019-03-13T22:22:09.386Z,15.93
2019-03-13T22:27:40.759Z,16.67
2019-03-13T22:30:13.479Z,19.10
2019-03-13T22:35:44.704Z,19.70
2019-03-13T22:41:15.468Z,30.40
2019-03-13T22:43:45.083Z,31.60
2019-03-13T22:46:34.032Z,25.33
2019-03-13T22:49:03.358Z,26.97
2019-03-13T22:51:35.680Z,25.20
2019-03-13T22:54:21.919Z,19.93
2019-03-13T22:56:51.254Z,19.70
2019-03-13T22:59:20.684Z,18.43
2019-03-13T23:01:50.107Z,25.80
2019-03-13T23:04:19.436Z,19.13
2019-03-13T23:06:48.771Z,20.27
2019-03-13T23:09:18.100Z,23.03
2019-03-13T23:11:47.446Z,28.67
2019-03-13T23:14:16.769Z,21.80
2019-03-13T23:16:46.103Z,21.17
2019-03-13T23:19:17.567Z,17.93
2019-03-13T23:22:04.658Z,15.80
2019-03-13T23:24:33.989Z,14.83
2019-03-13T23:27:03.298Z,13.20
2019-03-13T23:29:32.607Z,12.70
2019-03-13T23:32:01.934Z,14.13
2019-03-13T23:34:31.247Z,17.97
2019-03-13T23:40:03.195Z,16.87
2019-03-13T23:42:32.528Z,15.17
2019-03-13T23:45:01.855Z,14.77
2019-03-13T23:47:31.166Z,16.83
2019-03-13T23:50:00.499Z,16.43
2019-03-13T23:52:29.815Z,14.83
2019-03-13T23:54:59.127Z,15.70
2019-03-13T23:57:28.436Z,13.60
2019-03-13T23:59:57.755Z,13.57
